sensor_id;sensor_type;location;lat;lon;timestamp;temperature;humidity
57242;DHT22;43095;53.302;5.786;2022-11-04T00:02:02;11.10;99.90
57242;DHT22;43095;53.302;5.786;2022-11-04T00:04:30;11.10;99.90
57242;DHT22;43095;53.302;5.786;2022-11-04T00:06:57;11.00;99.90
57242;DHT22;43095;53.302;5.786;2022-11-04T00:09:27;11.00;99.90
57242;DHT22;43095;53.302;5.786;2022-11-04T00:11:56;11.00;99.90
57242;DHT22;43095;53.302;5.786;2022-11-04T00:14:42;11.00;99.90
57242;DHT22;43095;53.302;5.786;2022-11-04T00:17:15;11.00;99.90
57242;DHT22;43095;53.302;5.786;2022-11-04T00:19:50;11.00;99.90
57242;DHT22;43095;53.302;5.786;2022-11-04T00:22:37;11.10;99.90
57242;DHT22;43095;53.302;5.786;2022-11-04T00:25:25;11.10;99.90
57242;DHT22;43095;53.302;5.786;2022-11-04T00:28:16;11.10;99.90
57242;DHT22;43095;53.302;5.786;2022-11-04T00:31:05;11.10;99.90
57242;DHT22;43095;53.302;5.786;2022-11-04T00:33:52;11.10;99.90
57242;DHT22;43095;53.302;5.786;2022-11-04T00:36:22;11.10;99.90
57242;DHT22;43095;53.302;5.786;2022-11-04T00:38:50;11.10;99.90
57242;DHT22;43095;53.302;5.786;2022-11-04T00:41:17;11.20;99.90
57242;DHT22;43095;53.302;5.786;2022-11-04T00:44:02;11.20;99.90
57242;DHT22;43095;53.302;5.786;2022-11-04T00:46:32;11.10;99.90
57242;DHT22;43095;53.302;5.786;2022-11-04T00:49:00;11.10;99.90
57242;DHT22;43095;53.302;5.786;2022-11-04T00:51:27;11.20;99.90
57242;DHT22;43095;53.302;5.786;2022-11-04T00:53:55;11.10;99.90
57242;DHT22;43095;53.302;5.786;2022-11-04T00:56:24;11.10;99.90
57242;DHT22;43095;53.302;5.786;2022-11-04T00:58:51;11.20;99.90
57242;DHT22;43095;53.302;5.786;2022-11-04T01:01:19;11.20;99.90
57242;DHT22;43095;53.302;5.786;2022-11-04T01:03:49;11.10;99.90
57242;DHT22;43095;53.302;5.786;2022-11-04T01:06:21;11.10;99.90
57242;DHT22;43095;53.302;5.786;2022-11-04T01:08:58;11.10;99.90
57242;DHT22;43095;53.302;5.786;2022-11-04T01:11:27;11.10;99.90
57242;DHT22;43095;53.302;5.786;2022-11-04T01:14:00;11.10;99.90
57242;DHT22;43095;53.302;5.786;2022-11-04T01:16:29;11.20;99.90
57242;DHT22;43095;53.302;5.786;2022-11-04T01:18:59;11.20;99.90
57242;DHT22;43095;53.302;5.786;2022-11-04T01:21:29;11.10;99.90
57242;DHT22;43095;53.302;5.786;2022-11-04T01:23:58;11.10;99.90
57242;DHT22;43095;53.302;5.786;2022-11-04T01:26:27;11.10;99.90
57242;DHT22;43095;53.302;5.786;2022-11-04T01:28:56;11.10;99.90
57242;DHT22;43095;53.302;5.786;2022-11-04T01:31:26;11.10;99.90
57242;DHT22;43095;53.302;5.786;2022-11-04T01:33:56;11.10;99.90
57242;DHT22;43095;53.302;5.786;2022-11-04T01:36:24;11.10;99.90
57242;DHT22;43095;53.302;5.786;2022-11-04T01:38:54;11.10;99.90
57242;DHT22;43095;53.302;5.786;2022-11-04T01:41:28;11.00;99.90
57242;DHT22;43095;53.302;5.786;2022-11-04T01:44:42;11.10;99.90
57242;DHT22;43095;53.302;5.786;2022-11-04T01:46:52;11.10;99.90
57242;DHT22;43095;53.302;5.786;2022-11-04T01:49:32;11.10;99.90
57242;DHT22;43095;53.302;5.786;2022-11-04T01:52:14;11.10;99.90
57242;DHT22;43095;53.302;5.786;2022-11-04T01:54:44;11.10;99.90
57242;DHT22;43095;53.302;5.786;2022-11-04T01:57:18;11.00;99.90
57242;DHT22;43095;53.302;5.786;2022-11-04T01:59:49;11.10;99.90
57242;DHT22;43095;53.302;5.786;2022-11-04T02:05:32;11.10;99.90
57242;DHT22;43095;53.302;5.786;2022-11-04T02:08:01;11.10;99.90
57242;DHT22;43095;53.302;5.786;2022-11-04T02:10:30;11.10;99.90
57242;DHT22;43095;53.302;5.786;2022-11-04T02:13:00;11.10;99.90
57242;DHT22;43095;53.302;5.786;2022-11-04T02:18:23;11.10;99.90
57242;DHT22;43095;53.302;5.786;2022-11-04T02:21:05;11.10;99.90
57242;DHT22;43095;53.302;5.786;2022-11-04T02:38:43;11.10;99.90
57242;DHT22;43095;53.302;5.786;2022-11-04T02:41:51;11.10;99.90
57242;DHT22;43095;53.302;5.786;2022-11-04T02:47:04;11.10;99.90
57242;DHT22;43095;53.302;5.786;2022-11-04T02:50:46;11.10;99.90
57242;DHT22;43095;53.302;5.786;2022-11-04T02:52:54;11.10;99.90
57242;DHT22;43095;53.302;5.786;2022-11-04T02:55:29;11.10;99.90
57242;DHT22;43095;53.302;5.786;2022-11-04T02:58:01;11.10;99.90
57242;DHT22;43095;53.302;5.786;2022-11-04T03:00:31;11.10;99.90
57242;DHT22;43095;53.302;5.786;2022-11-04T03:03:03;11.10;99.90
57242;DHT22;43095;53.302;5.786;2022-11-04T03:05:34;11.00;99.90
57242;DHT22;43095;53.302;5.786;2022-11-04T03:08:11;11.10;99.90
57242;DHT22;43095;53.302;5.786;2022-11-04T03:10:43;11.10;99.90
57242;DHT22;43095;53.302;5.786;2022-11-04T03:15:51;10.90;99.90
57242;DHT22;43095;53.302;5.786;2022-11-04T03:21:18;10.80;99.90
57242;DHT22;43095;53.302;5.786;2022-11-04T03:23:48;10.50;99.90
57242;DHT22;43095;53.302;5.786;2022-11-04T03:26:29;10.40;99.90
57242;DHT22;43095;53.302;5.786;2022-11-04T03:29:34;10.40;99.90
57242;DHT22;43095;53.302;5.786;2022-11-04T03:32:21;10.40;99.90
57242;DHT22;43095;53.302;5.786;2022-11-04T03:35:05;10.40;99.90
57242;DHT22;43095;53.302;5.786;2022-11-04T03:37:35;10.30;99.90
57242;DHT22;43095;53.302;5.786;2022-11-04T03:40:04;10.40;99.90
57242;DHT22;43095;53.302;5.786;2022-11-04T03:42:44;10.40;99.90
57242;DHT22;43095;53.302;5.786;2022-11-04T03:45:16;10.40;99.90
57242;DHT22;43095;53.302;5.786;2022-11-04T03:47:43;10.50;99.90
57242;DHT22;43095;53.302;5.786;2022-11-04T03:50:22;10.50;99.90
57242;DHT22;43095;53.302;5.786;2022-11-04T03:52:52;10.50;99.90
57242;DHT22;43095;53.302;5.786;2022-11-04T04:12:00;10.50;99.90
57242;DHT22;43095;53.302;5.786;2022-11-04T04:14:39;10.50;99.90
57242;DHT22;43095;53.302;5.786;2022-11-04T04:20:00;10.50;99.90
57242;DHT22;43095;53.302;5.786;2022-11-04T04:22:48;10.50;99.90
57242;DHT22;43095;53.302;5.786;2022-11-04T04:25:43;10.50;99.90
57242;DHT22;43095;53.302;5.786;2022-11-04T04:28:45;10.60;99.90
57242;DHT22;43095;53.302;5.786;2022-11-04T04:31:14;10.60;99.90
57242;DHT22;43095;53.302;5.786;2022-11-04T04:34:08;10.50;99.90
57242;DHT22;43095;53.302;5.786;2022-11-04T04:39:26;10.50;99.90
57242;DHT22;43095;53.302;5.786;2022-11-04T04:42:13;10.50;99.90
57242;DHT22;43095;53.302;5.786;2022-11-04T04:45:03;10.50;99.90
57242;DHT22;43095;53.302;5.786;2022-11-04T04:47:43;10.50;99.90
57242;DHT22;43095;53.302;5.786;2022-11-04T04:50:14;10.50;99.90
57242;DHT22;43095;53.302;5.786;2022-11-04T04:52:44;10.50;99.90
57242;DHT22;43095;53.302;5.786;2022-11-04T04:55:14;10.50;99.90
57242;DHT22;43095;53.302;5.786;2022-11-04T04:57:42;10.50;99.90
57242;DHT22;43095;53.302;5.786;2022-11-04T05:00:13;10.50;99.90
57242;DHT22;43095;53.302;5.786;2022-11-04T05:02:51;10.40;99.90
57242;DHT22;43095;53.302;5.786;2022-11-04T05:05:20;10.40;99.90
57242;DHT22;43095;53.302;5.786;2022-11-04T05:08:04;10.50;99.90
57242;DHT22;43095;53.302;5.786;2022-11-04T05:10:35;10.50;99.90
57242;DHT22;43095;53.302;5.786;2022-11-04T05:13:03;10.40;99.90
57242;DHT22;43095;53.302;5.786;2022-11-04T05:16:07;10.40;99.90
57242;DHT22;43095;53.302;5.786;2022-11-04T05:18:36;10.50;99.90
57242;DHT22;43095;53.302;5.786;2022-11-04T05:21:09;10.50;99.90
57242;DHT22;43095;53.302;5.786;2022-11-04T05:23:49;10.50;99.90
57242;DHT22;43095;53.302;5.786;2022-11-04T05:26:21;10.50;99.90
57242;DHT22;43095;53.302;5.786;2022-11-04T05:28:49;10.50;99.90
57242;DHT22;43095;53.302;5.786;2022-11-04T05:31:19;10.40;99.90
57242;DHT22;43095;53.302;5.786;2022-11-04T05:33:47;10.40;99.90
57242;DHT22;43095;53.302;5.786;2022-11-04T05:36:24;10.40;99.90
57242;DHT22;43095;53.302;5.786;2022-11-04T05:38:53;10.40;99.90
57242;DHT22;43095;53.302;5.786;2022-11-04T05:41:37;10.40;99.90
57242;DHT22;43095;53.302;5.786;2022-11-04T05:44:20;10.50;99.90
57242;DHT22;43095;53.302;5.786;2022-11-04T05:46:47;10.50;99.90
57242;DHT22;43095;53.302;5.786;2022-11-04T05:49:44;10.50;99.90
57242;DHT22;43095;53.302;5.786;2022-11-04T05:52:37;10.60;99.90
57242;DHT22;43095;53.302;5.786;2022-11-04T05:55:26;10.50;99.90
57242;DHT22;43095;53.302;5.786;2022-11-04T05:57:56;10.50;99.90
57242;DHT22;43095;53.302;5.786;2022-11-04T06:00:39;10.50;99.90
57242;DHT22;43095;53.302;5.786;2022-11-04T06:03:23;10.50;99.90
57242;DHT22;43095;53.302;5.786;2022-11-04T06:05:50;10.40;99.90
57242;DHT22;43095;53.302;5.786;2022-11-04T06:08:17;10.40;99.90
57242;DHT22;43095;53.302;5.786;2022-11-04T06:10:46;10.40;99.90
57242;DHT22;43095;53.302;5.786;2022-11-04T06:13:14;10.30;99.90
57242;DHT22;43095;53.302;5.786;2022-11-04T06:15:41;10.20;99.90
57242;DHT22;43095;53.302;5.786;2022-11-04T06:18:08;10.20;99.90
57242;DHT22;43095;53.302;5.786;2022-11-04T06:20:39;10.20;99.90
57242;DHT22;43095;53.302;5.786;2022-11-04T06:23:15;10.20;99.90
57242;DHT22;43095;53.302;5.786;2022-11-04T06:25:56;10.20;99.90
57242;DHT22;43095;53.302;5.786;2022-11-04T06:28:24;10.10;99.90
57242;DHT22;43095;53.302;5.786;2022-11-04T06:31:04;10.10;99.90
57242;DHT22;43095;53.302;5.786;2022-11-04T06:33:32;10.00;99.90
57242;DHT22;43095;53.302;5.786;2022-11-04T06:36:04;10.10;99.90
57242;DHT22;43095;53.302;5.786;2022-11-04T06:38:33;10.00;99.90
57242;DHT22;43095;53.302;5.786;2022-11-04T06:41:01;10.00;99.90
57242;DHT22;43095;53.302;5.786;2022-11-04T06:43:28;9.90;99.90
57242;DHT22;43095;53.302;5.786;2022-11-04T06:45:59;9.90;99.90
57242;DHT22;43095;53.302;5.786;2022-11-04T06:48:28;9.70;99.90
57242;DHT22;43095;53.302;5.786;2022-11-04T06:50:59;9.80;99.90
57242;DHT22;43095;53.302;5.786;2022-11-04T06:53:27;9.80;99.90
57242;DHT22;43095;53.302;5.786;2022-11-04T06:56:02;9.70;99.90
57242;DHT22;43095;53.302;5.786;2022-11-04T06:58:29;9.70;99.90
57242;DHT22;43095;53.302;5.786;2022-11-04T07:00:57;9.60;99.90
57242;DHT22;43095;53.302;5.786;2022-11-04T07:03:24;9.60;99.90
57242;DHT22;43095;53.302;5.786;2022-11-04T07:05:51;9.60;99.90
57242;DHT22;43095;53.302;5.786;2022-11-04T07:08:18;9.60;99.90
57242;DHT22;43095;53.302;5.786;2022-11-04T07:10:45;9.50;99.90
57242;DHT22;43095;53.302;5.786;2022-11-04T07:13:13;9.40;99.90
57242;DHT22;43095;53.302;5.786;2022-11-04T07:15:40;9.50;99.90
57242;DHT22;43095;53.302;5.786;2022-11-04T07:18:07;9.50;99.90
57242;DHT22;43095;53.302;5.786;2022-11-04T07:20:35;9.50;99.90
57242;DHT22;43095;53.302;5.786;2022-11-04T07:23:03;9.60;99.90
57242;DHT22;43095;53.302;5.786;2022-11-04T07:25:30;9.50;99.90
57242;DHT22;43095;53.302;5.786;2022-11-04T07:27:57;9.50;99.90
57242;DHT22;43095;53.302;5.786;2022-11-04T07:30:28;9.40;99.90
57242;DHT22;43095;53.302;5.786;2022-11-04T07:32:56;9.30;99.90
57242;DHT22;43095;53.302;5.786;2022-11-04T07:35:23;9.30;99.90
57242;DHT22;43095;53.302;5.786;2022-11-04T07:37:50;9.40;99.90
57242;DHT22;43095;53.302;5.786;2022-11-04T07:40:17;9.30;99.90
57242;DHT22;43095;53.302;5.786;2022-11-04T07:42:44;9.30;99.90
57242;DHT22;43095;53.302;5.786;2022-11-04T07:45:16;9.40;99.90
57242;DHT22;43095;53.302;5.786;2022-11-04T07:47:43;9.40;99.90
57242;DHT22;43095;53.302;5.786;2022-11-04T07:50:10;9.40;99.90
57242;DHT22;43095;53.302;5.786;2022-11-04T07:52:38;9.40;99.90
57242;DHT22;43095;53.302;5.786;2022-11-04T07:55:05;9.50;99.90
57242;DHT22;43095;53.302;5.786;2022-11-04T07:57:32;9.50;99.90
57242;DHT22;43095;53.302;5.786;2022-11-04T08:00:00;9.50;99.90
57242;DHT22;43095;53.302;5.786;2022-11-04T08:02:27;9.60;99.90
57242;DHT22;43095;53.302;5.786;2022-11-04T08:05:01;9.60;99.90
57242;DHT22;43095;53.302;5.786;2022-11-04T08:07:28;9.60;99.90
57242;DHT22;43095;53.302;5.786;2022-11-04T08:09:55;9.60;99.90
57242;DHT22;43095;53.302;5.786;2022-11-04T08:12:22;9.60;99.90
57242;DHT22;43095;53.302;5.786;2022-11-04T08:14:50;9.70;99.90
57242;DHT22;43095;53.302;5.786;2022-11-04T08:17:17;9.80;99.90
57242;DHT22;43095;53.302;5.786;2022-11-04T08:19:45;9.80;99.90
57242;DHT22;43095;53.302;5.786;2022-11-04T08:22:12;9.90;99.90
57242;DHT22;43095;53.302;5.786;2022-11-04T08:24:39;10.00;99.90
57242;DHT22;43095;53.302;5.786;2022-11-04T08:27:06;10.00;99.90
57242;DHT22;43095;53.302;5.786;2022-11-04T08:29:34;10.00;99.90
57242;DHT22;43095;53.302;5.786;2022-11-04T08:32:01;10.00;99.90
57242;DHT22;43095;53.302;5.786;2022-11-04T08:34:28;10.10;99.90
57242;DHT22;43095;53.302;5.786;2022-11-04T08:36:55;10.10;99.90
57242;DHT22;43095;53.302;5.786;2022-11-04T08:39:23;10.20;99.90
57242;DHT22;43095;53.302;5.786;2022-11-04T08:41:50;10.30;99.90
57242;DHT22;43095;53.302;5.786;2022-11-04T08:44:20;10.30;99.90
57242;DHT22;43095;53.302;5.786;2022-11-04T08:46:48;10.50;99.90
57242;DHT22;43095;53.302;5.786;2022-11-04T08:49:15;10.60;99.90
57242;DHT22;43095;53.302;5.786;2022-11-04T08:51:48;10.60;99.90
57242;DHT22;43095;53.302;5.786;2022-11-04T08:54:23;10.60;99.90
57242;DHT22;43095;53.302;5.786;2022-11-04T08:56:50;10.80;99.90
57242;DHT22;43095;53.302;5.786;2022-11-04T08:59:17;10.80;99.90
57242;DHT22;43095;53.302;5.786;2022-11-04T09:01:45;10.90;99.90
57242;DHT22;43095;53.302;5.786;2022-11-04T09:04:12;11.10;99.90
57242;DHT22;43095;53.302;5.786;2022-11-04T09:06:41;11.10;99.90
57242;DHT22;43095;53.302;5.786;2022-11-04T09:09:12;11.10;99.90
57242;DHT22;43095;53.302;5.786;2022-11-04T09:11:41;11.20;99.90
57242;DHT22;43095;53.302;5.786;2022-11-04T09:14:10;11.30;99.90
57242;DHT22;43095;53.302;5.786;2022-11-04T09:16:38;11.40;99.90
57242;DHT22;43095;53.302;5.786;2022-11-04T09:19:05;11.50;99.90
57242;DHT22;43095;53.302;5.786;2022-11-04T09:21:33;11.50;99.90
57242;DHT22;43095;53.302;5.786;2022-11-04T09:24:00;11.60;99.90
57242;DHT22;43095;53.302;5.786;2022-11-04T09:26:28;11.60;99.90
57242;DHT22;43095;53.302;5.786;2022-11-04T09:28:57;11.60;99.90
57242;DHT22;43095;53.302;5.786;2022-11-04T09:31:26;11.50;99.90
57242;DHT22;43095;53.302;5.786;2022-11-04T09:33:54;11.50;99.90
57242;DHT22;43095;53.302;5.786;2022-11-04T09:36:22;11.50;99.90
57242;DHT22;43095;53.302;5.786;2022-11-04T09:38:50;11.40;99.90
57242;DHT22;43095;53.302;5.786;2022-11-04T09:47:33;11.50;99.90
57242;DHT22;43095;53.302;5.786;2022-11-04T09:50:02;11.50;99.90
57242;DHT22;43095;53.302;5.786;2022-11-04T09:52:38;11.40;99.90
57242;DHT22;43095;53.302;5.786;2022-11-04T09:55:20;11.40;99.90
57242;DHT22;43095;53.302;5.786;2022-11-04T09:57:56;11.30;99.90
57242;DHT22;43095;53.302;5.786;2022-11-04T10:00:29;11.30;99.90
57242;DHT22;43095;53.302;5.786;2022-11-04T10:03:16;11.30;99.90
57242;DHT22;43095;53.302;5.786;2022-11-04T10:05:58;11.30;99.90
57242;DHT22;43095;53.302;5.786;2022-11-04T10:13:57;11.40;99.90
57242;DHT22;43095;53.302;5.786;2022-11-04T10:21:55;11.50;99.90
57242;DHT22;43095;53.302;5.786;2022-11-04T10:25:00;11.60;99.90
57242;DHT22;43095;53.302;5.786;2022-11-04T10:27:32;11.30;99.90
57242;DHT22;43095;53.302;5.786;2022-11-04T10:35:50;11.00;99.90
57242;DHT22;43095;53.302;5.786;2022-11-04T10:38:43;11.00;99.90
57242;DHT22;43095;53.302;5.786;2022-11-04T10:43:40;11.00;99.90
57242;DHT22;43095;53.302;5.786;2022-11-04T10:52:15;11.00;99.90
57242;DHT22;43095;53.302;5.786;2022-11-04T10:54:57;11.00;99.90
57242;DHT22;43095;53.302;5.786;2022-11-04T10:57:24;11.00;99.90
57242;DHT22;43095;53.302;5.786;2022-11-04T11:00:00;11.00;99.90
57242;DHT22;43095;53.302;5.786;2022-11-04T11:02:58;11.00;99.90
57242;DHT22;43095;53.302;5.786;2022-11-04T11:06:21;11.10;99.90
57242;DHT22;43095;53.302;5.786;2022-11-04T11:09:12;11.10;99.90
57242;DHT22;43095;53.302;5.786;2022-11-04T11:11:46;11.00;99.90
57242;DHT22;43095;53.302;5.786;2022-11-04T11:17:16;11.10;99.90
57242;DHT22;43095;53.302;5.786;2022-11-04T11:20:21;11.20;99.90
57242;DHT22;43095;53.302;5.786;2022-11-04T11:23:04;11.30;99.90
57242;DHT22;43095;53.302;5.786;2022-11-04T11:25:51;11.20;99.90
57242;DHT22;43095;53.302;5.786;2022-11-04T11:28:34;11.30;99.90
57242;DHT22;43095;53.302;5.786;2022-11-04T11:31:25;11.30;99.90
57242;DHT22;43095;53.302;5.786;2022-11-04T11:34:20;11.30;99.90
57242;DHT22;43095;53.302;5.786;2022-11-04T11:37:03;11.40;99.90
57242;DHT22;43095;53.302;5.786;2022-11-04T11:39:55;11.50;99.90
57242;DHT22;43095;53.302;5.786;2022-11-04T11:42:26;11.60;99.90
57242;DHT22;43095;53.302;5.786;2022-11-04T11:44:55;11.70;99.90
57242;DHT22;43095;53.302;5.786;2022-11-04T11:50:35;12.00;99.90
57242;DHT22;43095;53.302;5.786;2022-11-04T11:54:26;12.10;99.90
57242;DHT22;43095;53.302;5.786;2022-11-04T11:56:56;12.30;99.90
57242;DHT22;43095;53.302;5.786;2022-11-04T11:59:45;12.50;99.90
57242;DHT22;43095;53.302;5.786;2022-11-04T12:08:57;13.00;99.90
57242;DHT22;43095;53.302;5.786;2022-11-04T12:12:13;13.10;99.90
57242;DHT22;43095;53.302;5.786;2022-11-04T12:15:07;13.10;99.90
57242;DHT22;43095;53.302;5.786;2022-11-04T12:26:22;13.50;99.90
57242;DHT22;43095;53.302;5.786;2022-11-04T12:29:28;13.70;99.90
57242;DHT22;43095;53.302;5.786;2022-11-04T12:32:21;13.90;99.90
57242;DHT22;43095;53.302;5.786;2022-11-04T12:35:04;14.10;99.90
57242;DHT22;43095;53.302;5.786;2022-11-04T12:37:56;14.20;99.90
57242;DHT22;43095;53.302;5.786;2022-11-04T12:44:21;14.50;99.90
57242;DHT22;43095;53.302;5.786;2022-11-04T12:55:48;15.10;99.90
57242;DHT22;43095;53.302;5.786;2022-11-04T12:58:40;15.20;99.90
57242;DHT22;43095;53.302;5.786;2022-11-04T13:01:17;15.40;99.90
57242;DHT22;43095;53.302;5.786;2022-11-04T13:04:02;15.50;99.90
57242;DHT22;43095;53.302;5.786;2022-11-04T13:06:36;15.20;99.90
57242;DHT22;43095;53.302;5.786;2022-11-04T13:14:53;15.60;99.90
57242;DHT22;43095;53.302;5.786;2022-11-04T13:17:36;15.40;99.90
57242;DHT22;43095;53.302;5.786;2022-11-04T13:23:01;15.50;98.70
57242;DHT22;43095;53.302;5.786;2022-11-04T13:25:47;15.40;99.50
57242;DHT22;43095;53.302;5.786;2022-11-04T13:28:18;15.40;98.70
57242;DHT22;43095;53.302;5.786;2022-11-04T13:34:27;15.60;99.90
57242;DHT22;43095;53.302;5.786;2022-11-04T13:39:40;15.60;99.90
57242;DHT22;43095;53.302;5.786;2022-11-04T13:45:13;15.70;99.50
57242;DHT22;43095;53.302;5.786;2022-11-04T13:47:49;15.70;99.90
57242;DHT22;43095;53.302;5.786;2022-11-04T13:50:38;15.50;99.90
57242;DHT22;43095;53.302;5.786;2022-11-04T13:53:08;15.30;99.90
57242;DHT22;43095;53.302;5.786;2022-11-04T13:55:50;14.90;99.90
57242;DHT22;43095;53.302;5.786;2022-11-04T13:58:27;14.90;99.90
57242;DHT22;43095;53.302;5.786;2022-11-04T14:01:24;14.70;99.90
57242;DHT22;43095;53.302;5.786;2022-11-04T14:04:01;14.40;99.90
57242;DHT22;43095;53.302;5.786;2022-11-04T14:07:01;14.30;99.90
57242;DHT22;43095;53.302;5.786;2022-11-04T14:12:31;13.90;99.90
57242;DHT22;43095;53.302;5.786;2022-11-04T14:15:15;13.80;99.90
57242;DHT22;43095;53.302;5.786;2022-11-04T14:23:57;13.60;99.90
57242;DHT22;43095;53.302;5.786;2022-11-04T14:26:28;13.50;99.90
57242;DHT22;43095;53.302;5.786;2022-11-04T14:29:18;13.40;99.90
57242;DHT22;43095;53.302;5.786;2022-11-04T14:32:05;13.20;99.90
57242;DHT22;43095;53.302;5.786;2022-11-04T14:35:02;13.20;99.90
57242;DHT22;43095;53.302;5.786;2022-11-04T14:37:33;13.10;99.90
57242;DHT22;43095;53.302;5.786;2022-11-04T14:40:04;13.00;99.90
57242;DHT22;43095;53.302;5.786;2022-11-04T14:42:48;12.90;99.90
57242;DHT22;43095;53.302;5.786;2022-11-04T14:45:22;12.80;99.90
57242;DHT22;43095;53.302;5.786;2022-11-04T14:47:55;12.80;99.90
57242;DHT22;43095;53.302;5.786;2022-11-04T14:50:52;12.70;99.90
57242;DHT22;43095;53.302;5.786;2022-11-04T14:53:33;12.60;99.90
57242;DHT22;43095;53.302;5.786;2022-11-04T14:56:05;12.50;99.90
57242;DHT22;43095;53.302;5.786;2022-11-04T14:58:36;12.50;99.90
57242;DHT22;43095;53.302;5.786;2022-11-04T15:01:04;12.40;99.90
57242;DHT22;43095;53.302;5.786;2022-11-04T15:03:37;12.40;99.90
57242;DHT22;43095;53.302;5.786;2022-11-04T15:06:28;12.30;99.90
57242;DHT22;43095;53.302;5.786;2022-11-04T15:09:30;12.20;99.90
57242;DHT22;43095;53.302;5.786;2022-11-04T15:12:02;12.20;99.90
57242;DHT22;43095;53.302;5.786;2022-11-04T15:14:50;12.10;99.90
57242;DHT22;43095;53.302;5.786;2022-11-04T15:17:19;12.00;99.90
57242;DHT22;43095;53.302;5.786;2022-11-04T15:19:51;12.00;99.90
57242;DHT22;43095;53.302;5.786;2022-11-04T15:22:19;11.90;99.90
57242;DHT22;43095;53.302;5.786;2022-11-04T15:24:47;11.90;99.90
57242;DHT22;43095;53.302;5.786;2022-11-04T15:27:22;11.80;99.90
57242;DHT22;43095;53.302;5.786;2022-11-04T15:29:56;11.80;99.90
57242;DHT22;43095;53.302;5.786;2022-11-04T15:32:23;11.80;99.90
57242;DHT22;43095;53.302;5.786;2022-11-04T15:34:52;11.70;99.90
57242;DHT22;43095;53.302;5.786;2022-11-04T15:37:21;11.50;99.90
57242;DHT22;43095;53.302;5.786;2022-11-04T15:39:51;11.60;99.90
57242;DHT22;43095;53.302;5.786;2022-11-04T15:42:22;11.60;99.90
57242;DHT22;43095;53.302;5.786;2022-11-04T15:47:55;11.50;99.90
57242;DHT22;43095;53.302;5.786;2022-11-04T15:50:36;11.50;99.90
57242;DHT22;43095;53.302;5.786;2022-11-04T15:53:08;11.40;99.90
57242;DHT22;43095;53.302;5.786;2022-11-04T15:55:36;11.40;99.90
57242;DHT22;43095;53.302;5.786;2022-11-04T15:58:04;11.40;99.90
57242;DHT22;43095;53.302;5.786;2022-11-04T16:00:35;11.40;99.90
57242;DHT22;43095;53.302;5.786;2022-11-04T16:03:03;11.40;99.90
57242;DHT22;43095;53.302;5.786;2022-11-04T16:05:33;11.30;99.90
57242;DHT22;43095;53.302;5.786;2022-11-04T16:08:22;11.30;99.90
57242;DHT22;43095;53.302;5.786;2022-11-04T16:10:50;11.30;99.90
57242;DHT22;43095;53.302;5.786;2022-11-04T16:13:33;11.20;99.90
57242;DHT22;43095;53.302;5.786;2022-11-04T16:18:34;11.20;99.90
57242;DHT22;43095;53.302;5.786;2022-11-04T16:21:05;11.20;99.90
57242;DHT22;43095;53.302;5.786;2022-11-04T16:23:41;11.20;99.90
57242;DHT22;43095;53.302;5.786;2022-11-04T16:26:09;11.10;99.90
57242;DHT22;43095;53.302;5.786;2022-11-04T16:28:38;11.10;99.90
57242;DHT22;43095;53.302;5.786;2022-11-04T16:31:24;11.10;99.90
57242;DHT22;43095;53.302;5.786;2022-11-04T16:33:52;11.10;99.90
57242;DHT22;43095;53.302;5.786;2022-11-04T16:36:19;11.20;99.90
57242;DHT22;43095;53.302;5.786;2022-11-04T16:39:00;11.20;99.90
57242;DHT22;43095;53.302;5.786;2022-11-04T16:41:35;11.20;99.90
57242;DHT22;43095;53.302;5.786;2022-11-04T16:44:04;11.10;99.90
57242;DHT22;43095;53.302;5.786;2022-11-04T16:46:32;11.10;99.90
57242;DHT22;43095;53.302;5.786;2022-11-04T16:49:00;11.10;99.90
57242;DHT22;43095;53.302;5.786;2022-11-04T16:51:27;11.10;99.90
57242;DHT22;43095;53.302;5.786;2022-11-04T16:53:54;11.10;99.90
57242;DHT22;43095;53.302;5.786;2022-11-04T16:56:25;11.10;99.90
57242;DHT22;43095;53.302;5.786;2022-11-04T16:58:53;11.00;99.90
57242;DHT22;43095;53.302;5.786;2022-11-04T17:01:20;11.00;99.90
57242;DHT22;43095;53.302;5.786;2022-11-04T17:03:48;11.00;99.90
57242;DHT22;43095;53.302;5.786;2022-11-04T17:06:16;11.00;99.90
57242;DHT22;43095;53.302;5.786;2022-11-04T17:08:43;11.00;99.90
57242;DHT22;43095;53.302;5.786;2022-11-04T17:11:11;11.10;99.90
57242;DHT22;43095;53.302;5.786;2022-11-04T17:13:39;10.90;99.90
57242;DHT22;43095;53.302;5.786;2022-11-04T17:16:10;10.90;99.90
57242;DHT22;43095;53.302;5.786;2022-11-04T17:18:37;10.90;99.90
57242;DHT22;43095;53.302;5.786;2022-11-04T17:21:07;10.80;99.90
57242;DHT22;43095;53.302;5.786;2022-11-04T17:23:35;10.90;99.90
57242;DHT22;43095;53.302;5.786;2022-11-04T17:26:02;10.80;99.90
57242;DHT22;43095;53.302;5.786;2022-11-04T17:28:31;10.80;99.90
57242;DHT22;43095;53.302;5.786;2022-11-04T17:31:00;10.80;99.90
57242;DHT22;43095;53.302;5.786;2022-11-04T17:33:28;10.80;99.90
57242;DHT22;43095;53.302;5.786;2022-11-04T17:35:56;10.80;99.90
57242;DHT22;43095;53.302;5.786;2022-11-04T17:38:23;10.80;99.90
57242;DHT22;43095;53.302;5.786;2022-11-04T17:40:53;10.80;99.90
57242;DHT22;43095;53.302;5.786;2022-11-04T17:43:39;10.80;99.90
57242;DHT22;43095;53.302;5.786;2022-11-04T17:46:27;10.80;99.90
57242;DHT22;43095;53.302;5.786;2022-11-04T17:51:41;10.80;99.90
57242;DHT22;43095;53.302;5.786;2022-11-04T17:54:09;10.70;99.90
57242;DHT22;43095;53.302;5.786;2022-11-04T17:56:37;10.80;99.90
57242;DHT22;43095;53.302;5.786;2022-11-04T17:59:05;10.80;99.90
57242;DHT22;43095;53.302;5.786;2022-11-04T18:01:35;10.80;99.90
57242;DHT22;43095;53.302;5.786;2022-11-04T18:04:02;10.80;99.90
57242;DHT22;43095;53.302;5.786;2022-11-04T18:06:32;10.70;99.90
57242;DHT22;43095;53.302;5.786;2022-11-04T18:09:01;10.70;99.90
57242;DHT22;43095;53.302;5.786;2022-11-04T18:11:30;10.70;99.90
57242;DHT22;43095;53.302;5.786;2022-11-04T18:14:16;10.70;99.90
57242;DHT22;43095;53.302;5.786;2022-11-04T18:16:58;10.70;99.90
57242;DHT22;43095;53.302;5.786;2022-11-04T18:19:30;10.70;99.90
57242;DHT22;43095;53.302;5.786;2022-11-04T18:21:57;10.70;99.90
57242;DHT22;43095;53.302;5.786;2022-11-04T18:24:25;10.80;99.90
57242;DHT22;43095;53.302;5.786;2022-11-04T18:27:06;10.80;99.90
57242;DHT22;43095;53.302;5.786;2022-11-04T18:29:33;10.70;99.90
57242;DHT22;43095;53.302;5.786;2022-11-04T18:32:15;10.70;99.90
57242;DHT22;43095;53.302;5.786;2022-11-04T18:34:42;10.70;99.90
57242;DHT22;43095;53.302;5.786;2022-11-04T18:37:11;10.70;99.90
57242;DHT22;43095;53.302;5.786;2022-11-04T18:39:53;10.70;99.90
57242;DHT22;43095;53.302;5.786;2022-11-04T18:42:22;10.60;99.90
57242;DHT22;43095;53.302;5.786;2022-11-04T18:44:49;10.60;99.90
57242;DHT22;43095;53.302;5.786;2022-11-04T18:47:16;10.60;99.90
57242;DHT22;43095;53.302;5.786;2022-11-04T18:49:45;10.50;99.90
57242;DHT22;43095;53.302;5.786;2022-11-04T18:52:12;10.50;99.90